sensor_id;sensor_type;location;lat;lon;timestamp;pressure;altitude;pressure_sealevel;temperature;humidity
21817;BME280;13247;47.504;7.382;2023-04-07T00:01:15;97309.00;;;8.32;100.00
21817;BME280;13247;47.504;7.382;2023-04-07T00:04:00;97310.38;;;8.48;100.00
21817;BME280;13247;47.504;7.382;2023-04-07T00:06:45;97306.38;;;8.34;100.00
21817;BME280;13247;47.504;7.382;2023-04-07T00:09:29;97306.16;;;8.43;100.00
21817;BME280;13247;47.504;7.382;2023-04-07T00:12:14;97304.34;;;8.45;100.00
21817;BME280;13247;47.504;7.382;2023-04-07T00:14:59;97307.00;;;8.43;100.00
21817;BME280;13247;47.504;7.382;2023-04-07T00:17:44;97310.59;;;8.39;100.00
21817;BME280;13247;47.504;7.382;2023-04-07T00:20:29;97311.75;;;8.28;100.00
21817;BME280;13247;47.504;7.382;2023-04-07T00:23:13;97311.56;;;7.94;100.00
21817;BME280;13247;47.504;7.382;2023-04-07T00:25:58;97297.88;;;8.23;100.00
21817;BME280;13247;47.504;7.382;2023-04-07T00:28:42;97306.47;;;8.29;100.00
21817;BME280;13247;47.504;7.382;2023-04-07T00:31:27;97303.06;;;7.86;100.00
21817;BME280;13247;47.504;7.382;2023-04-07T00:34:11;97292.69;;;7.81;100.00
21817;BME280;13247;47.504;7.382;2023-04-07T00:36:56;97300.31;;;7.92;100.00
21817;BME280;13247;47.504;7.382;2023-04-07T00:39:40;97295.56;;;8.09;100.00
21817;BME280;13247;47.504;7.382;2023-04-07T00:42:25;97290.72;;;8.34;100.00
21817;BME280;13247;47.504;7.382;2023-04-07T00:45:10;97293.47;;;8.28;100.00
21817;BME280;13247;47.504;7.382;2023-04-07T00:47:56;97281.53;;;8.53;100.00
21817;BME280;13247;47.504;7.382;2023-04-07T00:50:44;97277.44;;;8.41;100.00
21817;BME280;13247;47.504;7.382;2023-04-07T00:53:29;97274.94;;;8.38;100.00
21817;BME280;13247;47.504;7.382;2023-04-07T00:56:14;97273.66;;;8.54;100.00
21817;BME280;13247;47.504;7.382;2023-04-07T00:58:58;97272.06;;;8.47;100.00
21817;BME280;13247;47.504;7.382;2023-04-07T01:08:20;97260.19;;;8.34;100.00
21817;BME280;13247;47.504;7.382;2023-04-07T01:11:40;97256.63;;;8.38;100.00
21817;BME280;13247;47.504;7.382;2023-04-07T01:14:23;97255.63;;;8.44;100.00
21817;BME280;13247;47.504;7.382;2023-04-07T01:17:10;97254.22;;;8.64;100.00
21817;BME280;13247;47.504;7.382;2023-04-07T01:20:00;97251.75;;;8.23;100.00
21817;BME280;13247;47.504;7.382;2023-04-07T01:22:56;97241.03;;;8.35;100.00
21817;BME280;13247;47.504;7.382;2023-04-07T01:32:09;97235.44;;;8.12;100.00
21817;BME280;13247;47.504;7.382;2023-04-07T01:34:55;97231.34;;;8.40;100.00
21817;BME280;13247;47.504;7.382;2023-04-07T01:37:41;97218.19;;;8.43;100.00
21817;BME280;13247;47.504;7.382;2023-04-07T01:40:27;97219.53;;;8.23;100.00
21817;BME280;13247;47.504;7.382;2023-04-07T01:43:14;97212.50;;;8.28;100.00
21817;BME280;13247;47.504;7.382;2023-04-07T01:46:00;97203.97;;;8.18;100.00
21817;BME280;13247;47.504;7.382;2023-04-07T01:48:47;97196.44;;;8.05;100.00
21817;BME280;13247;47.504;7.382;2023-04-07T01:51:32;97194.69;;;8.05;100.00
21817;BME280;13247;47.504;7.382;2023-04-07T01:54:18;97175.50;;;8.08;100.00
21817;BME280;13247;47.504;7.382;2023-04-07T01:57:04;97177.47;;;8.35;100.00
21817;BME280;13247;47.504;7.382;2023-04-07T01:59:48;97178.16;;;8.06;100.00
21817;BME280;13247;47.504;7.382;2023-04-07T02:02:35;97168.22;;;7.83;100.00
21817;BME280;13247;47.504;7.382;2023-04-07T02:05:23;97169.50;;;8.03;100.00
21817;BME280;13247;47.504;7.382;2023-04-07T02:08:08;97174.16;;;7.90;100.00
21817;BME280;13247;47.504;7.382;2023-04-07T02:10:55;97170.03;;;7.81;100.00
21817;BME280;13247;47.504;7.382;2023-04-07T02:13:42;97169.69;;;7.60;100.00
21817;BME280;13247;47.504;7.382;2023-04-07T02:16:31;97163.88;;;7.84;100.00
21817;BME280;13247;47.504;7.382;2023-04-07T02:19:16;97163.47;;;8.02;100.00
21817;BME280;13247;47.504;7.382;2023-04-07T02:22:04;97168.84;;;7.96;100.00
21817;BME280;13247;47.504;7.382;2023-04-07T02:24:50;97166.22;;;7.96;100.00
21817;BME280;13247;47.504;7.382;2023-04-07T02:27:34;97165.66;;;7.82;100.00
21817;BME280;13247;47.504;7.382;2023-04-07T02:30:20;97164.75;;;7.46;100.00
21817;BME280;13247;47.504;7.382;2023-04-07T02:33:05;97167.69;;;7.33;100.00
21817;BME280;13247;47.504;7.382;2023-04-07T02:35:49;97167.22;;;7.52;100.00
21817;BME280;13247;47.504;7.382;2023-04-07T02:38:34;97168.13;;;7.50;100.00
21817;BME280;13247;47.504;7.382;2023-04-07T02:41:19;97168.28;;;7.44;100.00
21817;BME280;13247;47.504;7.382;2023-04-07T02:44:04;97166.63;;;7.41;100.00
21817;BME280;13247;47.504;7.382;2023-04-07T02:46:49;97164.69;;;7.49;100.00
21817;BME280;13247;47.504;7.382;2023-04-07T02:49:34;97163.03;;;7.45;100.00
21817;BME280;13247;47.504;7.382;2023-04-07T02:52:18;97159.22;;;7.22;100.00
21817;BME280;13247;47.504;7.382;2023-04-07T02:55:03;97155.41;;;6.96;100.00
21817;BME280;13247;47.504;7.382;2023-04-07T02:57:48;97161.41;;;7.00;100.00
21817;BME280;13247;47.504;7.382;2023-04-07T03:00:33;97153.06;;;7.24;100.00
21817;BME280;13247;47.504;7.382;2023-04-07T03:03:18;97150.09;;;7.41;100.00
21817;BME280;13247;47.504;7.382;2023-04-07T03:06:03;97149.28;;;7.39;100.00
21817;BME280;13247;47.504;7.382;2023-04-07T03:08:47;97131.44;;;7.19;100.00
21817;BME280;13247;47.504;7.382;2023-04-07T03:11:32;97132.97;;;7.29;100.00
21817;BME280;13247;47.504;7.382;2023-04-07T03:14:16;97124.06;;;7.76;100.00
21817;BME280;13247;47.504;7.382;2023-04-07T03:17:01;97123.28;;;7.71;100.00
21817;BME280;13247;47.504;7.382;2023-04-07T03:19:45;97115.25;;;7.80;100.00
21817;BME280;13247;47.504;7.382;2023-04-07T03:22:30;97108.69;;;7.99;100.00
21817;BME280;13247;47.504;7.382;2023-04-07T03:25:15;97102.66;;;7.97;100.00
21817;BME280;13247;47.504;7.382;2023-04-07T03:28:00;97108.81;;;7.94;100.00
21817;BME280;13247;47.504;7.382;2023-04-07T03:30:44;97107.38;;;7.83;100.00
21817;BME280;13247;47.504;7.382;2023-04-07T03:33:29;97103.13;;;7.79;100.00
21817;BME280;13247;47.504;7.382;2023-04-07T03:36:14;97101.31;;;7.81;100.00
21817;BME280;13247;47.504;7.382;2023-04-07T03:38:59;97103.81;;;7.85;100.00
21817;BME280;13247;47.504;7.382;2023-04-07T03:41:44;97102.34;;;8.09;100.00
21817;BME280;13247;47.504;7.382;2023-04-07T03:44:28;97104.81;;;7.80;100.00
21817;BME280;13247;47.504;7.382;2023-04-07T03:47:13;97100.66;;;7.73;100.00
21817;BME280;13247;47.504;7.382;2023-04-07T03:49:57;97095.31;;;7.41;100.00
21817;BME280;13247;47.504;7.382;2023-04-07T03:52:42;97093.41;;;7.49;100.00
21817;BME280;13247;47.504;7.382;2023-04-07T03:55:26;97096.09;;;7.81;100.00
21817;BME280;13247;47.504;7.382;2023-04-07T03:58:11;97095.25;;;7.80;100.00
21817;BME280;13247;47.504;7.382;2023-04-07T04:00:56;97101.06;;;7.91;100.00
21817;BME280;13247;47.504;7.382;2023-04-07T04:03:41;97099.22;;;7.95;100.00
21817;BME280;13247;47.504;7.382;2023-04-07T04:06:26;97095.31;;;8.11;100.00
21817;BME280;13247;47.504;7.382;2023-04-07T04:09:10;97096.38;;;7.70;100.00
21817;BME280;13247;47.504;7.382;2023-04-07T04:11:55;97094.59;;;7.71;100.00
21817;BME280;13247;47.504;7.382;2023-04-07T04:14:40;97094.47;;;7.77;100.00
21817;BME280;13247;47.504;7.382;2023-04-07T04:17:25;97101.34;;;7.79;100.00
21817;BME280;13247;47.504;7.382;2023-04-07T04:20:10;97102.06;;;7.86;100.00
21817;BME280;13247;47.504;7.382;2023-04-07T04:22:55;97110.13;;;7.77;100.00
21817;BME280;13247;47.504;7.382;2023-04-07T04:25:40;97116.13;;;7.80;100.00
21817;BME280;13247;47.504;7.382;2023-04-07T04:28:25;97120.81;;;7.66;100.00
21817;BME280;13247;47.504;7.382;2023-04-07T04:31:10;97115.22;;;7.45;100.00
21817;BME280;13247;47.504;7.382;2023-04-07T04:33:54;97127.22;;;7.53;100.00
21817;BME280;13247;47.504;7.382;2023-04-07T04:36:39;97127.16;;;7.55;100.00
21817;BME280;13247;47.504;7.382;2023-04-07T04:39:24;97140.50;;;7.43;100.00
21817;BME280;13247;47.504;7.382;2023-04-07T04:42:10;97147.34;;;7.47;100.00
21817;BME280;13247;47.504;7.382;2023-04-07T04:44:54;97147.88;;;7.23;100.00
21817;BME280;13247;47.504;7.382;2023-04-07T04:47:39;97157.69;;;7.50;100.00
21817;BME280;13247;47.504;7.382;2023-04-07T04:50:24;97147.78;;;7.65;100.00
21817;BME280;13247;47.504;7.382;2023-04-07T04:53:09;97139.72;;;7.76;100.00
21817;BME280;13247;47.504;7.382;2023-04-07T04:55:54;97138.03;;;7.73;100.00
21817;BME280;13247;47.504;7.382;2023-04-07T04:58:40;97133.56;;;7.78;100.00
21817;BME280;13247;47.504;7.382;2023-04-07T05:01:29;97133.53;;;7.80;100.00
21817;BME280;13247;47.504;7.382;2023-04-07T05:04:14;97138.06;;;7.72;100.00
21817;BME280;13247;47.504;7.382;2023-04-07T05:07:00;97139.88;;;7.70;100.00
21817;BME280;13247;47.504;7.382;2023-04-07T05:09:44;97134.69;;;7.67;100.00
21817;BME280;13247;47.504;7.382;2023-04-07T05:12:29;97134.59;;;7.73;100.00
21817;BME280;13247;47.504;7.382;2023-04-07T05:15:14;97135.66;;;7.64;100.00
21817;BME280;13247;47.504;7.382;2023-04-07T05:17:59;97138.47;;;7.55;100.00
21817;BME280;13247;47.504;7.382;2023-04-07T05:20:44;97136.97;;;7.45;100.00
21817;BME280;13247;47.504;7.382;2023-04-07T05:23:29;97141.44;;;7.39;100.00
21817;BME280;13247;47.504;7.382;2023-04-07T05:26:14;97137.84;;;7.44;100.00
21817;BME280;13247;47.504;7.382;2023-04-07T05:28:59;97139.91;;;7.29;100.00
21817;BME280;13247;47.504;7.382;2023-04-07T05:31:44;97138.38;;;7.60;100.00
21817;BME280;13247;47.504;7.382;2023-04-07T05:34:28;97141.56;;;7.71;100.00
21817;BME280;13247;47.504;7.382;2023-04-07T05:37:13;97139.41;;;7.88;100.00
21817;BME280;13247;47.504;7.382;2023-04-07T05:39:57;97144.94;;;7.76;100.00
21817;BME280;13247;47.504;7.382;2023-04-07T05:42:42;97147.06;;;7.59;100.00
21817;BME280;13247;47.504;7.382;2023-04-07T05:45:27;97152.72;;;7.77;100.00
21817;BME280;13247;47.504;7.382;2023-04-07T05:48:11;97158.66;;;7.84;100.00
21817;BME280;13247;47.504;7.382;2023-04-07T05:50:56;97156.88;;;7.86;100.00
21817;BME280;13247;47.504;7.382;2023-04-07T05:53:40;97159.84;;;7.71;100.00
21817;BME280;13247;47.504;7.382;2023-04-07T05:56:25;97159.19;;;7.61;100.00
21817;BME280;13247;47.504;7.382;2023-04-07T05:59:10;97165.03;;;7.71;100.00
21817;BME280;13247;47.504;7.382;2023-04-07T06:01:54;97163.16;;;7.79;100.00
21817;BME280;13247;47.504;7.382;2023-04-07T06:04:39;97159.88;;;7.69;100.00
21817;BME280;13247;47.504;7.382;2023-04-07T06:07:24;97155.91;;;7.53;100.00
21817;BME280;13247;47.504;7.382;2023-04-07T06:10:09;97173.25;;;7.56;100.00
21817;BME280;13247;47.504;7.382;2023-04-07T06:12:54;97165.06;;;7.31;100.00
21817;BME280;13247;47.504;7.382;2023-04-07T06:15:39;97161.59;;;7.32;100.00
21817;BME280;13247;47.504;7.382;2023-04-07T06:18:23;97166.94;;;7.26;100.00
21817;BME280;13247;47.504;7.382;2023-04-07T06:21:08;97169.69;;;7.19;100.00
21817;BME280;13247;47.504;7.382;2023-04-07T06:23:53;97161.81;;;7.22;100.00
21817;BME280;13247;47.504;7.382;2023-04-07T06:26:39;97166.72;;;7.35;100.00
21817;BME280;13247;47.504;7.382;2023-04-07T06:29:24;97174.84;;;7.22;100.00
21817;BME280;13247;47.504;7.382;2023-04-07T06:32:09;97175.00;;;7.16;100.00
21817;BME280;13247;47.504;7.382;2023-04-07T06:34:54;97181.13;;;7.13;100.00
21817;BME280;13247;47.504;7.382;2023-04-07T06:37:39;97185.84;;;6.93;100.00
21817;BME280;13247;47.504;7.382;2023-04-07T06:40:24;97186.06;;;6.82;100.00
21817;BME280;13247;47.504;7.382;2023-04-07T06:43:08;97186.59;;;6.99;100.00
21817;BME280;13247;47.504;7.382;2023-04-07T06:45:53;97192.50;;;7.07;100.00
21817;BME280;13247;47.504;7.382;2023-04-07T06:48:37;97186.13;;;6.79;100.00
21817;BME280;13247;47.504;7.382;2023-04-07T06:51:22;97198.25;;;6.80;100.00
21817;BME280;13247;47.504;7.382;2023-04-07T06:54:06;97198.06;;;6.92;100.00
21817;BME280;13247;47.504;7.382;2023-04-07T06:56:56;97206.47;;;6.59;100.00
21817;BME280;13247;47.504;7.382;2023-04-07T06:59:40;97207.22;;;6.66;100.00
21817;BME280;13247;47.504;7.382;2023-04-07T07:02:25;97200.03;;;6.78;100.00
21817;BME280;13247;47.504;7.382;2023-04-07T07:05:10;97213.13;;;6.75;100.00
21817;BME280;13247;47.504;7.382;2023-04-07T07:07:55;97213.03;;;6.81;100.00
21817;BME280;13247;47.504;7.382;2023-04-07T07:10:39;97219.88;;;5.82;100.00
21817;BME280;13247;47.504;7.382;2023-04-07T07:13:25;97225.31;;;6.24;100.00
21817;BME280;13247;47.504;7.382;2023-04-07T07:16:10;97219.59;;;6.53;100.00
21817;BME280;13247;47.504;7.382;2023-04-07T07:18:56;97225.13;;;6.35;100.00
21817;BME280;13247;47.504;7.382;2023-04-07T07:21:40;97222.56;;;6.32;100.00
21817;BME280;13247;47.504;7.382;2023-04-07T07:24:25;97219.16;;;6.28;100.00
21817;BME280;13247;47.504;7.382;2023-04-07T07:27:09;97223.53;;;6.26;100.00
21817;BME280;13247;47.504;7.382;2023-04-07T07:29:54;97221.97;;;6.15;100.00
21817;BME280;13247;47.504;7.382;2023-04-07T07:32:39;97216.09;;;6.04;100.00
21817;BME280;13247;47.504;7.382;2023-04-07T07:35:24;97233.56;;;5.30;100.00
21817;BME280;13247;47.504;7.382;2023-04-07T07:38:08;97230.28;;;5.82;100.00
21817;BME280;13247;47.504;7.382;2023-04-07T07:40:53;97233.38;;;6.09;100.00
21817;BME280;13247;47.504;7.382;2023-04-07T07:43:37;97238.53;;;5.50;100.00
21817;BME280;13247;47.504;7.382;2023-04-07T07:46:22;97243.31;;;5.80;100.00
21817;BME280;13247;47.504;7.382;2023-04-07T07:49:09;97243.28;;;5.82;100.00
21817;BME280;13247;47.504;7.382;2023-04-07T07:51:54;97245.47;;;6.12;100.00
21817;BME280;13247;47.504;7.382;2023-04-07T07:54:39;97249.75;;;6.16;100.00
21817;BME280;13247;47.504;7.382;2023-04-07T07:57:24;97253.44;;;6.01;100.00
21817;BME280;13247;47.504;7.382;2023-04-07T08:00:09;97257.31;;;5.72;100.00
21817;BME280;13247;47.504;7.382;2023-04-07T08:02:54;97262.44;;;5.75;100.00
21817;BME280;13247;47.504;7.382;2023-04-07T08:05:39;97266.44;;;6.03;100.00
21817;BME280;13247;47.504;7.382;2023-04-07T08:08:26;97268.19;;;6.01;100.00
21817;BME280;13247;47.504;7.382;2023-04-07T08:11:10;97273.38;;;6.04;100.00
21817;BME280;13247;47.504;7.382;2023-04-07T08:13:55;97278.47;;;6.10;100.00
21817;BME280;13247;47.504;7.382;2023-04-07T08:16:40;97284.78;;;5.94;100.00
21817;BME280;13247;47.504;7.382;2023-04-07T08:19:25;97284.28;;;6.25;100.00
21817;BME280;13247;47.504;7.382;2023-04-07T08:22:09;97293.81;;;5.64;100.00
21817;BME280;13247;47.504;7.382;2023-04-07T08:24:54;97295.75;;;5.47;100.00
21817;BME280;13247;47.504;7.382;2023-04-07T08:27:39;97296.91;;;5.22;100.00
21817;BME280;13247;47.504;7.382;2023-04-07T08:30:24;97295.88;;;5.36;100.00
21817;BME280;13247;47.504;7.382;2023-04-07T08:33:08;97302.84;;;5.34;100.00
21817;BME280;13247;47.504;7.382;2023-04-07T08:35:53;97302.16;;;5.20;100.00
21817;BME280;13247;47.504;7.382;2023-04-07T08:38:37;97304.81;;;5.14;100.00
21817;BME280;13247;47.504;7.382;2023-04-07T08:41:51;97302.38;;;4.99;100.00
21817;BME280;13247;47.504;7.382;2023-04-07T08:44:38;97310.31;;;4.84;100.00
21817;BME280;13247;47.504;7.382;2023-04-07T08:47:25;97311.00;;;5.01;100.00
21817;BME280;13247;47.504;7.382;2023-04-07T08:50:14;97318.75;;;5.07;100.00
21817;BME280;13247;47.504;7.382;2023-04-07T08:53:02;97316.56;;;4.66;100.00
21817;BME280;13247;47.504;7.382;2023-04-07T08:55:50;97320.78;;;4.76;100.00
21817;BME280;13247;47.504;7.382;2023-04-07T08:58:36;97315.34;;;5.02;100.00
21817;BME280;13247;47.504;7.382;2023-04-07T09:01:22;97317.56;;;5.35;100.00
21817;BME280;13247;47.504;7.382;2023-04-07T09:04:09;97320.44;;;5.13;100.00
21817;BME280;13247;47.504;7.382;2023-04-07T09:06:54;97310.53;;;5.46;100.00
21817;BME280;13247;47.504;7.382;2023-04-07T09:09:38;97314.69;;;5.61;100.00
21817;BME280;13247;47.504;7.382;2023-04-07T09:12:23;97305.91;;;5.70;100.00
21817;BME280;13247;47.504;7.382;2023-04-07T09:15:09;97310.25;;;5.68;100.00
21817;BME280;13247;47.504;7.382;2023-04-07T09:17:56;97315.47;;;5.66;100.00
21817;BME280;13247;47.504;7.382;2023-04-07T09:21:01;97309.63;;;6.16;100.00
21817;BME280;13247;47.504;7.382;2023-04-07T09:23:46;97311.84;;;5.78;100.00
21817;BME280;13247;47.504;7.382;2023-04-07T09:26:31;97307.47;;;5.83;100.00
21817;BME280;13247;47.504;7.382;2023-04-07T09:29:19;97314.47;;;5.78;100.00
21817;BME280;13247;47.504;7.382;2023-04-07T09:32:04;97313.09;;;6.15;100.00
21817;BME280;13247;47.504;7.382;2023-04-07T09:34:58;97315.75;;;6.10;100.00
21817;BME280;13247;47.504;7.382;2023-04-07T09:37:44;97315.88;;;6.03;100.00
21817;BME280;13247;47.504;7.382;2023-04-07T09:40:44;97315.31;;;6.41;100.00
21817;BME280;13247;47.504;7.382;2023-04-07T09:43:29;97308.75;;;6.70;100.00
21817;BME280;13247;47.504;7.382;2023-04-07T09:46:16;97307.88;;;6.70;100.00
21817;BME280;13247;47.504;7.382;2023-04-07T09:49:04;97307.25;;;7.06;100.00
21817;BME280;13247;47.504;7.382;2023-04-07T09:54:39;97313.22;;;7.12;100.00
21817;BME280;13247;47.504;7.382;2023-04-07T09:57:25;97301.00;;;7.14;100.00
21817;BME280;13247;47.504;7.382;2023-04-07T10:00:09;97306.69;;;7.36;100.00
21817;BME280;13247;47.504;7.382;2023-04-07T10:02:55;97304.31;;;6.77;100.00
21817;BME280;13247;47.504;7.382;2023-04-07T10:05:42;97304.63;;;7.07;100.00
21817;BME280;13247;47.504;7.382;2023-04-07T10:08:33;97307.59;;;7.34;100.00
21817;BME280;13247;47.504;7.382;2023-04-07T10:11:18;97304.16;;;7.32;100.00
21817;BME280;13247;47.504;7.382;2023-04-07T10:14:03;97314.13;;;7.11;100.00
21817;BME280;13247;47.504;7.382;2023-04-07T10:16:49;97311.53;;;7.11;100.00
21817;BME280;13247;47.504;7.382;2023-04-07T10:19:35;97311.19;;;7.28;100.00
21817;BME280;13247;47.504;7.382;2023-04-07T10:22:21;97311.31;;;7.22;100.00
21817;BME280;13247;47.504;7.382;2023-04-07T10:25:08;97310.25;;;7.32;100.00
21817;BME280;13247;47.504;7.382;2023-04-07T10:28:05;97308.75;;;7.63;100.00
21817;BME280;13247;47.504;7.382;2023-04-07T10:31:03;97310.50;;;7.63;100.00
21817;BME280;13247;47.504;7.382;2023-04-07T10:33:52;97312.75;;;7.79;100.00
21817;BME280;13247;47.504;7.382;2023-04-07T10:37:12;97316.19;;;6.93;100.00
21817;BME280;13247;47.504;7.382;2023-04-07T10:43:05;97322.19;;;7.86;100.00
21817;BME280;13247;47.504;7.382;2023-04-07T10:45:55;97322.50;;;7.73;100.00
21817;BME280;13247;47.504;7.382;2023-04-07T10:48:42;97325.63;;;7.47;100.00
21817;BME280;13247;47.504;7.382;2023-04-07T10:51:26;97322.25;;;7.41;100.00
21817;BME280;13247;47.504;7.382;2023-04-07T10:54:18;97333.03;;;7.67;100.00
21817;BME280;13247;47.504;7.382;2023-04-07T10:57:08;97318.84;;;8.20;100.00
21817;BME280;13247;47.504;7.382;2023-04-07T11:02:56;97330.88;;;7.44;100.00
21817;BME280;13247;47.504;7.382;2023-04-07T11:05:41;97335.69;;;7.20;100.00
21817;BME280;13247;47.504;7.382;2023-04-07T11:08:37;97331.00;;;7.38;100.00
21817;BME280;13247;47.504;7.382;2023-04-07T11:11:36;97333.41;;;7.49;100.00
21817;BME280;13247;47.504;7.382;2023-04-07T11:14:29;97333.16;;;7.15;100.00
21817;BME280;13247;47.504;7.382;2023-04-07T11:17:16;97333.34;;;7.52;100.00
21817;BME280;13247;47.504;7.382;2023-04-07T11:20:02;97344.41;;;7.20;100.00
21817;BME280;13247;47.504;7.382;2023-04-07T11:22:59;97346.69;;;7.37;100.00
21817;BME280;13247;47.504;7.382;2023-04-07T11:25:47;97342.06;;;7.05;100.00
21817;BME280;13247;47.504;7.382;2023-04-07T11:28:32;97351.06;;;7.35;100.00
21817;BME280;13247;47.504;7.382;2023-04-07T11:31:24;97353.69;;;7.35;100.00
21817;BME280;13247;47.504;7.382;2023-04-07T11:34:09;97359.09;;;6.72;100.00
21817;BME280;13247;47.504;7.382;2023-04-07T11:36:54;97352.44;;;6.53;100.00
21817;BME280;13247;47.504;7.382;2023-04-07T11:39:43;97357.47;;;7.17;100.00
21817;BME280;13247;47.504;7.382;2023-04-07T11:42:33;97359.22;;;7.17;100.00
21817;BME280;13247;47.504;7.382;2023-04-07T11:45:18;97362.66;;;6.67;100.00
21817;BME280;13247;47.504;7.382;2023-04-07T11:48:04;97354.50;;;6.86;100.00
21817;BME280;13247;47.504;7.382;2023-04-07T11:50:49;97357.22;;;6.82;100.00
21817;BME280;13247;47.504;7.382;2023-04-07T11:53:35;97366.31;;;7.08;100.00
21817;BME280;13247;47.504;7.382;2023-04-07T11:56:23;97369.09;;;6.98;100.00
21817;BME280;13247;47.504;7.382;2023-04-07T11:59:08;97362.75;;;6.62;100.00
21817;BME280;13247;47.504;7.382;2023-04-07T12:01:52;97366.72;;;6.86;100.00
21817;BME280;13247;47.504;7.382;2023-04-07T12:04:37;97369.06;;;6.99;100.00
21817;BME280;13247;47.504;7.382;2023-04-07T12:07:24;97361.44;;;7.38;100.00
21817;BME280;13247;47.504;7.382;2023-04-07T12:10:22;97364.56;;;7.07;100.00
21817;BME280;13247;47.504;7.382;2023-04-07T12:13:09;97366.91;;;7.24;100.00
21817;BME280;13247;47.504;7.382;2023-04-07T12:15:54;97364.31;;;7.70;100.00
21817;BME280;13247;47.504;7.382;2023-04-07T12:18:38;97357.94;;;7.39;100.00
21817;BME280;13247;47.504;7.382;2023-04-07T12:21:23;97366.91;;;7.23;100.00
21817;BME280;13247;47.504;7.382;2023-04-07T12:24:09;97365.78;;;7.37;100.00
21817;BME280;13247;47.504;7.382;2023-04-07T12:26:54;97374.63;;;7.30;100.00
21817;BME280;13247;47.504;7.382;2023-04-07T12:29:39;97366.72;;;7.35;100.00
21817;BME280;13247;47.504;7.382;2023-04-07T12:32:25;97369.59;;;6.68;100.00
21817;BME280;13247;47.504;7.382;2023-04-07T12:35:09;97374.94;;;7.12;100.00
21817;BME280;13247;47.504;7.382;2023-04-07T12:37:54;97369.25;;;6.90;100.00
21817;BME280;13247;47.504;7.382;2023-04-07T12:40:40;97362.69;;;7.17;100.00
21817;BME280;13247;47.504;7.382;2023-04-07T12:43:25;97367.97;;;7.12;100.00
21817;BME280;13247;47.504;7.382;2023-04-07T12:46:10;97374.16;;;7.05;100.00
21817;BME280;13247;47.504;7.382;2023-04-07T12:48:55;97373.34;;;7.05;100.00
21817;BME280;13247;47.504;7.382;2023-04-07T12:51:40;97370.28;;;7.31;100.00
21817;BME280;13247;47.504;7.382;2023-04-07T12:54:25;97370.69;;;7.55;100.00
21817;BME280;13247;47.504;7.382;2023-04-07T12:57:10;97371.75;;;7.45;100.00
21817;BME280;13247;47.504;7.382;2023-04-07T12:59:54;97373.66;;;7.36;100.00
21817;BME280;13247;47.504;7.382;2023-04-07T13:02:40;97367.28;;;7.52;100.00
21817;BME280;13247;47.504;7.382;2023-04-07T13:05:27;97367.88;;;7.20;100.00
21817;BME280;13247;47.504;7.382;2023-04-07T13:08:11;97374.03;;;7.14;100.00
21817;BME280;13247;47.504;7.382;2023-04-07T13:10:56;97373.81;;;7.27;100.00
21817;BME280;13247;47.504;7.382;2023-04-07T13:13:41;97374.94;;;7.13;100.00
21817;BME280;13247;47.504;7.382;2023-04-07T13:16:26;97378.47;;;7.09;100.00
21817;BME280;13247;47.504;7.382;2023-04-07T13:19:10;97372.09;;;7.26;100.00
21817;BME280;13247;47.504;7.382;2023-04-07T13:21:55;97377.22;;;7.30;100.00
21817;BME280;13247;47.504;7.382;2023-04-07T13:24:39;97379.31;;;7.11;100.00
21817;BME280;13247;47.504;7.382;2023-04-07T13:27:24;97375.69;;;7.19;100.00
21817;BME280;13247;47.504;7.382;2023-04-07T13:30:09;97373.94;;;7.19;100.00
21817;BME280;13247;47.504;7.382;2023-04-07T13:32:54;97370.91;;;7.42;100.00
21817;BME280;13247;47.504;7.382;2023-04-07T13:35:38;97372.63;;;7.44;100.00
21817;BME280;13247;47.504;7.382;2023-04-07T13:38:23;97375.09;;;7.52;100.00
21817;BME280;13247;47.504;7.382;2023-04-07T13:41:09;97367.78;;;7.69;100.00
21817;BME280;13247;47.504;7.382;2023-04-07T13:43:53;97356.28;;;7.79;100.00
21817;BME280;13247;47.504;7.382;2023-04-07T13:46:38;97365.50;;;7.52;100.00
21817;BME280;13247;47.504;7.382;2023-04-07T13:49:22;97366.94;;;7.68;100.00
21817;BME280;13247;47.504;7.382;2023-04-07T13:52:07;97369.75;;;7.58;100.00
21817;BME280;13247;47.504;7.382;2023-04-07T13:54:52;97355.59;;;7.69;100.00
21817;BME280;13247;47.504;7.382;2023-04-07T13:57:37;97371.50;;;7.57;100.00
21817;BME280;13247;47.504;7.382;2023-04-07T14:00:22;97360.72;;;7.74;100.00
21817;BME280;13247;47.504;7.382;2023-04-07T14:03:06;97360.81;;;7.69;100.00
21817;BME280;13247;47.504;7.382;2023-04-07T14:05:51;97357.00;;;7.87;100.00
21817;BME280;13247;47.504;7.382;2023-04-07T14:08:36;97355.06;;;7.95;100.00
21817;BME280;13247;47.504;7.382;2023-04-07T14:11:21;97350.25;;;7.75;100.00
21817;BME280;13247;47.504;7.382;2023-04-07T14:14:06;97355.22;;;7.89;100.00
21817;BME280;13247;47.504;7.382;2023-04-07T14:16:51;97351.38;;;8.05;100.00
21817;BME280;13247;47.504;7.382;2023-04-07T14:19:36;97344.84;;;8.26;100.00
21817;BME280;13247;47.504;7.382;2023-04-07T14:22:20;97346.44;;;8.33;100.00
21817;BME280;13247;47.504;7.382;2023-04-07T14:25:05;97345.56;;;8.34;100.00
21817;BME280;13247;47.504;7.382;2023-04-07T14:27:51;97345.91;;;8.16;100.00
21817;BME280;13247;47.504;7.382;2023-04-07T14:30:36;97344.75;;;8.32;100.00
21817;BME280;13247;47.504;7.382;2023-04-07T14:33:22;97342.97;;;8.34;100.00
21817;BME280;13247;47.504;7.382;2023-04-07T14:36:06;97343.59;;;8.43;100.00
21817;BME280;13247;47.504;7.382;2023-04-07T14:38:51;97343.31;;;8.16;100.00
21817;BME280;13247;47.504;7.382;2023-04-07T14:41:37;97341.31;;;8.30;100.00
21817;BME280;13247;47.504;7.382;2023-04-07T14:44:22;97341.66;;;8.12;100.00
21817;BME280;13247;47.504;7.382;2023-04-07T14:47:06;97343.94;;;8.28;100.00
21817;BME280;13247;47.504;7.382;2023-04-07T14:49:51;97340.25;;;8.37;100.00
21817;BME280;13247;47.504;7.382;2023-04-07T14:52:36;97342.81;;;8.40;100.00
21817;BME280;13247;47.504;7.382;2023-04-07T14:55:21;97337.19;;;8.56;100.00
21817;BME280;13247;47.504;7.382;2023-04-07T14:58:06;97345.66;;;8.66;100.00
21817;BME280;13247;47.504;7.382;2023-04-07T15:00:50;97335.56;;;8.88;100.00